createdAt,value
2022-08-03T00:00:32.058Z,44.99
2022-08-03T00:03:34.812Z,44.99
2022-08-03T00:06:37.899Z,45.44
2022-08-03T00:09:40.473Z,45.32
2022-08-03T00:12:42.725Z,45.63
2022-08-03T00:15:45.445Z,45.75
2022-08-03T00:18:47.714Z,45.85
2022-08-03T00:21:50.533Z,46.04
2022-08-03T00:24:52.788Z,46.18
2022-08-03T00:27:55.396Z,46.16
2022-08-03T00:30:58.344Z,46.15
2022-08-03T00:34:03.465Z,46.42
2022-08-03T00:37:05.904Z,46.59
2022-08-03T00:40:13.629Z,46.64
2022-08-03T00:43:15.983Z,46.73
2022-08-03T00:46:21.765Z,47.00
2022-08-03T00:49:24.876Z,47.18
2022-08-03T00:52:30.038Z,47.36
2022-08-03T00:55:32.519Z,47.54
2022-08-03T00:58:35.307Z,47.61
2022-08-03T01:01:37.690Z,48.04
2022-08-03T01:04:40.270Z,48.19
2022-08-03T01:08:03.479Z,48.40
2022-08-03T01:11:16.584Z,48.67
2022-08-03T01:14:31.069Z,48.97
2022-08-03T01:18:03.379Z,49.18
2022-08-03T01:21:12.569Z,49.38
2022-08-03T01:24:54.651Z,49.60
2022-08-03T01:28:03.654Z,49.87
2022-08-03T01:31:08.619Z,49.88
2022-08-03T01:34:14.734Z,49.94
2022-08-03T01:37:24.608Z,50.04
2022-08-03T01:40:28.441Z,50.11
2022-08-03T01:44:28.397Z,50.25
2022-08-03T01:46:54.353Z,50.42
2022-08-03T01:49:58.034Z,50.34
2022-08-03T01:53:01.478Z,50.49
2022-08-03T01:56:06.433Z,50.84
2022-08-03T01:59:10.668Z,50.89
2022-08-03T02:02:33.237Z,51.05
2022-08-03T02:05:39.435Z,51.23
2022-08-03T02:08:44.888Z,51.24
2022-08-03T02:11:48.549Z,51.44
2022-08-03T02:14:52.093Z,51.50
2022-08-03T02:17:57.593Z,51.49
2022-08-03T02:21:10.964Z,51.76
2022-08-03T02:24:14.127Z,51.68
2022-08-03T02:27:24.327Z,51.79
2022-08-03T02:30:39.145Z,51.70
2022-08-03T02:33:50.624Z,51.66
2022-08-03T02:36:54.260Z,51.76
2022-08-03T02:40:03.872Z,51.92
2022-08-03T02:43:12.190Z,51.91
2022-08-03T02:46:19.838Z,52.12
2022-08-03T02:49:49.446Z,52.05
2022-08-03T02:52:48.865Z,52.17
2022-08-03T02:55:53.097Z,52.27
2022-08-03T02:58:58.384Z,52.38
2022-08-03T03:02:02.300Z,52.50
2022-08-03T03:05:55.894Z,52.51
2022-08-03T03:08:29.301Z,52.69
2022-08-03T03:11:31.810Z,52.71
2022-08-03T03:14:35.097Z,52.93
2022-08-03T03:17:37.655Z,53.01
2022-08-03T03:20:41.255Z,53.09
2022-08-03T03:23:44.006Z,53.10
2022-08-03T03:26:48.762Z,53.43
2022-08-03T03:29:51.242Z,53.58
2022-08-03T03:32:54.565Z,53.86
2022-08-03T03:35:58.556Z,54.09
2022-08-03T03:39:15.522Z,53.96
2022-08-03T03:42:18.435Z,54.17
2022-08-03T03:45:21.965Z,54.51
2022-08-03T03:48:25.227Z,54.57
2022-08-03T03:51:27.639Z,54.74
2022-08-03T03:54:42.867Z,54.99
2022-08-03T03:57:45.626Z,54.83
2022-08-03T04:00:48.058Z,55.03
2022-08-03T04:03:50.649Z,55.11
2022-08-03T04:07:11.345Z,55.17
2022-08-03T04:10:41.489Z,55.12
2022-08-03T04:13:55.323Z,55.33
2022-08-03T04:17:13.146Z,55.43
2022-08-03T04:20:20.220Z,55.32
2022-08-03T04:23:38.157Z,55.26
2022-08-03T04:26:43.286Z,55.31
2022-08-03T04:29:59.663Z,55.19
2022-08-03T04:33:03.642Z,55.23
2022-08-03T04:36:11.016Z,55.33
2022-08-03T04:39:38.947Z,55.45
2022-08-03T04:42:44.803Z,55.56
2022-08-03T04:45:49.600Z,55.62
2022-08-03T04:48:52.735Z,55.64
2022-08-03T04:51:55.190Z,55.64
2022-08-03T04:54:57.845Z,55.63
2022-08-03T04:58:01.648Z,55.58
2022-08-03T05:01:04.218Z,55.30
2022-08-03T05:04:06.583Z,55.29
2022-08-03T05:07:12.303Z,55.26
2022-08-03T05:10:16.488Z,55.28
2022-08-03T05:13:19.386Z,55.53
2022-08-03T05:16:21.735Z,55.56
2022-08-03T05:19:24.618Z,55.88
2022-08-03T05:22:27.209Z,55.95
2022-08-03T05:25:31.953Z,56.12
2022-08-03T05:28:34.390Z,56.29
2022-08-03T05:31:37.088Z,56.37
2022-08-03T05:34:39.718Z,56.36
2022-08-03T05:37:42.586Z,56.49
2022-08-03T05:41:21.658Z,56.34
2022-08-03T05:44:20.732Z,56.30
2022-08-03T05:47:23.177Z,56.00
2022-08-03T05:50:25.762Z,55.99
2022-08-03T05:53:28.056Z,55.79
2022-08-03T05:56:30.716Z,55.72
2022-08-03T05:59:38.485Z,55.33
2022-08-03T06:02:43.040Z,55.31
2022-08-03T06:05:55.531Z,55.05
2022-08-03T06:09:02.783Z,54.89
2022-08-03T06:12:05.664Z,54.72
2022-08-03T06:15:11.513Z,54.31
2022-08-03T06:18:14.405Z,54.10
2022-08-03T06:21:16.770Z,53.51
2022-08-03T06:24:19.431Z,53.18
2022-08-03T06:27:36.697Z,52.86
2022-08-03T06:30:41.495Z,52.15
2022-08-03T06:34:29.099Z,51.74
2022-08-03T06:37:06.553Z,51.30
2022-08-03T06:40:10.176Z,50.97
2022-08-03T06:43:16.528Z,50.36
2022-08-03T06:46:19.414Z,49.82
2022-08-03T06:49:22.042Z,49.39
2022-08-03T06:52:38.340Z,48.77
2022-08-03T06:55:42.420Z,48.08
2022-08-03T06:58:45.091Z,47.74
2022-08-03T07:01:49.725Z,46.89
2022-08-03T07:04:52.172Z,46.38
2022-08-03T07:07:56.750Z,45.49
2022-08-03T07:10:59.196Z,45.41
2022-08-03T07:14:01.813Z,44.82
2022-08-03T07:17:12.024Z,44.28
2022-08-03T07:20:18.394Z,43.90
2022-08-03T07:23:23.072Z,43.40
2022-08-03T07:26:25.731Z,42.59
2022-08-03T07:29:28.139Z,42.31
2022-08-03T07:32:31.686Z,42.05
2022-08-03T07:35:34.207Z,41.62
2022-08-03T07:38:37.272Z,41.27
2022-08-03T07:41:39.654Z,40.81
2022-08-03T07:44:44.658Z,40.56
2022-08-03T07:47:53.245Z,39.69
2022-08-03T07:50:56.324Z,39.21
2022-08-03T07:53:59.108Z,38.47
2022-08-03T07:57:01.623Z,37.92
2022-08-03T08:00:09.125Z,37.08
2022-08-03T08:03:14.150Z,36.71
2022-08-03T08:06:18.317Z,36.71
2022-08-03T08:09:20.581Z,36.07
2022-08-03T08:12:23.130Z,35.79
2022-08-03T08:15:25.655Z,34.99
2022-08-03T08:18:33.613Z,34.74
2022-08-03T08:21:53.791Z,33.75
2022-08-03T08:25:01.657Z,33.50
2022-08-03T08:28:31.806Z,33.39
2022-08-03T08:31:27.285Z,32.78
2022-08-03T08:34:29.661Z,31.98
2022-08-03T08:37:35.480Z,30.95
2022-08-03T08:40:37.603Z,30.89
2022-08-03T08:43:41.070Z,32.29
2022-08-03T08:46:44.145Z,32.33
2022-08-03T08:50:04.043Z,31.27
2022-08-03T08:53:17.631Z,30.82
2022-08-03T08:56:26.712Z,29.50
2022-08-03T08:59:48.931Z,28.97
2022-08-03T09:02:52.861Z,29.14
2022-08-03T09:05:56.420Z,28.10
2022-08-03T09:08:59.203Z,27.28
2022-08-03T09:12:28.128Z,27.01
2022-08-03T09:15:32.389Z,26.34
2022-08-03T09:18:34.636Z,25.63
2022-08-03T09:21:37.203Z,25.03
2022-08-03T09:25:21.545Z,24.83
2022-08-03T09:28:57.226Z,23.45
2022-08-03T09:31:43.612Z,23.28
2022-08-03T09:34:47.595Z,23.53
2022-08-03T09:38:13.932Z,22.70
2022-08-03T09:41:20.174Z,22.09
2022-08-03T09:44:35.861Z,22.09
2022-08-03T09:47:44.629Z,21.81
2022-08-03T09:50:57.063Z,21.42
2022-08-03T09:54:32.677Z,21.10
2022-08-03T09:57:35.320Z,21.56
2022-08-03T10:00:55.819Z,21.76
2022-08-03T10:04:04.053Z,20.98
2022-08-03T10:07:07.031Z,20.75
2022-08-03T10:10:30.030Z,20.22
2022-08-03T10:13:33.838Z,20.13
2022-08-03T10:16:38.824Z,19.72
2022-08-03T10:19:41.632Z,19.36
2022-08-03T10:22:44.476Z,18.92
2022-08-03T10:25:53.174Z,18.55
2022-08-03T10:28:59.712Z,18.54
2022-08-03T10:32:09.392Z,18.88
2022-08-03T10:35:19.865Z,19.07
2022-08-03T10:38:37.415Z,19.17
2022-08-03T10:41:42.616Z,20.90
2022-08-03T10:44:44.886Z,22.94
2022-08-03T10:47:52.188Z,23.30
2022-08-03T10:50:54.920Z,23.04
2022-08-03T10:53:59.036Z,22.42
2022-08-03T10:57:22.675Z,21.63
2022-08-03T11:00:27.638Z,21.12
2022-08-03T11:03:30.020Z,20.36
2022-08-03T11:06:37.290Z,20.30
2022-08-03T11:09:47.508Z,20.28
2022-08-03T11:12:50.277Z,20.65
2022-08-03T11:15:59.805Z,21.41
2022-08-03T11:19:09.856Z,21.96
2022-08-03T11:22:13.887Z,23.31
2022-08-03T11:25:54.076Z,23.98
2022-08-03T11:28:40.148Z,24.78
2022-08-03T11:31:50.547Z,25.14
2022-08-03T11:35:12.413Z,25.42
2022-08-03T11:38:15.394Z,25.83
2022-08-03T11:41:44.871Z,25.71
2022-08-03T11:44:49.048Z,25.03
2022-08-03T11:47:54.863Z,24.89
2022-08-03T11:50:57.465Z,23.83
2022-08-03T11:54:02.780Z,23.18
2022-08-03T11:57:05.494Z,22.66
2022-08-03T12:00:33.993Z,22.21
2022-08-03T12:03:36.604Z,22.73
2022-08-03T12:06:56.395Z,23.56
2022-08-03T12:10:06.584Z,23.10
2022-08-03T12:14:36.660Z,22.45
2022-08-03T12:16:34.860Z,22.12
2022-08-03T12:19:43.921Z,21.75
2022-08-03T12:22:46.453Z,20.95
2022-08-03T12:25:50.930Z,20.74
2022-08-03T12:28:53.531Z,20.80
2022-08-03T12:31:56.439Z,21.32
2022-08-03T12:35:01.639Z,21.16
2022-08-03T12:38:04.513Z,20.93
2022-08-03T12:41:13.677Z,20.61
2022-08-03T12:44:16.039Z,20.09
2022-08-03T12:47:18.776Z,20.14
2022-08-03T12:50:31.506Z,20.23
2022-08-03T12:53:37.407Z,20.49
2022-08-03T12:57:10.788Z,20.84
2022-08-03T13:00:28.849Z,21.05
2022-08-03T13:03:43.627Z,20.65
2022-08-03T13:07:03.891Z,20.61
2022-08-03T13:10:08.304Z,20.26
2022-08-03T13:13:11.080Z,20.48
2022-08-03T13:16:18.751Z,20.69
2022-08-03T13:19:21.847Z,20.59
2022-08-03T13:22:27.312Z,20.58
2022-08-03T13:25:29.986Z,20.68
2022-08-03T13:28:32.229Z,20.63
2022-08-03T13:31:34.710Z,20.08
2022-08-03T13:34:38.069Z,19.95
2022-08-03T13:37:40.668Z,20.54
2022-08-03T13:40:42.967Z,20.50
2022-08-03T13:43:50.023Z,20.78
2022-08-03T13:47:02.685Z,20.46
2022-08-03T13:50:05.509Z,20.84
2022-08-03T13:53:07.669Z,20.90
2022-08-03T13:56:10.126Z,21.27
2022-08-03T13:59:12.405Z,20.88
2022-08-03T14:02:15.070Z,20.69
2022-08-03T14:05:17.788Z,21.10
2022-08-03T14:08:20.036Z,20.92
2022-08-03T14:11:22.614Z,20.68
2022-08-03T14:14:26.049Z,21.45
2022-08-03T14:17:42.097Z,21.25
2022-08-03T14:20:54.341Z,21.28
2022-08-03T14:23:58.689Z,21.31
2022-08-03T14:27:09.066Z,21.34
2022-08-03T14:30:12.693Z,21.37
2022-08-03T14:33:15.100Z,21.50
2022-08-03T14:36:17.603Z,21.16
2022-08-03T14:39:19.860Z,21.51
2022-08-03T14:42:22.487Z,21.54
2022-08-03T14:45:24.770Z,21.59
2022-08-03T14:50:31.972Z,21.66
2022-08-03T14:51:53.254Z,22.00
2022-08-03T14:54:56.410Z,21.83
2022-08-03T14:57:59.991Z,21.77
2022-08-03T15:01:02.770Z,21.65
2022-08-03T15:04:25.140Z,21.39
2022-08-03T15:07:27.644Z,21.68
2022-08-03T15:10:43.902Z,21.44
2022-08-03T15:13:47.548Z,21.61
2022-08-03T15:16:49.825Z,21.63
2022-08-03T15:20:01.297Z,21.74
2022-08-03T15:23:07.996Z,21.86
2022-08-03T15:26:30.609Z,21.88
2022-08-03T15:30:05.795Z,22.07
2022-08-03T15:32:55.386Z,22.43
2022-08-03T15:36:00.026Z,22.52
2022-08-03T15:39:02.679Z,22.38
2022-08-03T15:42:05.210Z,22.61
2022-08-03T15:45:08.529Z,22.59
2022-08-03T15:48:10.764Z,22.46
2022-08-03T15:51:13.368Z,22.81
2022-08-03T15:54:15.699Z,23.07
2022-08-03T15:57:18.621Z,23.15
2022-08-03T16:00:21.186Z,23.29
2022-08-03T16:03:36.536Z,23.51
2022-08-03T16:06:38.835Z,24.10
2022-08-03T16:09:43.896Z,24.01
2022-08-03T16:12:47.788Z,23.92
2022-08-03T16:15:50.725Z,24.17
2022-08-03T16:18:53.540Z,24.38
2022-08-03T16:21:56.087Z,24.74
2022-08-03T16:24:59.671Z,24.84
2022-08-03T16:28:07.896Z,25.11
2022-08-03T16:31:14.904Z,25.36
2022-08-03T16:34:17.379Z,25.38
2022-08-03T16:37:38.524Z,25.52
2022-08-03T16:40:41.981Z,25.50
2022-08-03T16:43:44.266Z,25.79
2022-08-03T16:46:46.836Z,25.95
2022-08-03T16:49:54.528Z,26.06
2022-08-03T16:52:58.317Z,26.23
2022-08-03T16:56:00.723Z,26.25
2022-08-03T16:59:04.397Z,26.68
2022-08-03T17:02:12.702Z,26.60
2022-08-03T17:05:17.645Z,26.64
2022-08-03T17:08:26.449Z,26.56
2022-08-03T17:11:33.052Z,26.89
2022-08-03T17:14:36.051Z,26.86
2022-08-03T17:17:53.853Z,27.18
2022-08-03T17:20:58.534Z,27.57
2022-08-03T17:24:04.681Z,28.30
2022-08-03T17:28:41.655Z,28.48
2022-08-03T17:31:00.039Z,28.72
2022-08-03T17:34:04.561Z,29.07
2022-08-03T17:37:49.782Z,29.42
2022-08-03T17:40:34.574Z,29.80
2022-08-03T17:44:13.421Z,29.95
2022-08-03T17:47:04.577Z,30.32
2022-08-03T17:50:09.788Z,30.46
2022-08-03T17:53:31.458Z,30.39
2022-08-03T17:57:26.390Z,30.64
2022-08-03T18:00:52.244Z,30.81
2022-08-03T18:04:02.906Z,30.87
2022-08-03T18:07:18.801Z,31.43
2022-08-03T18:10:24.278Z,31.41
2022-08-03T18:13:31.010Z,31.65
2022-08-03T18:16:56.414Z,31.67
2022-08-03T18:20:02.712Z,31.97
2022-08-03T18:23:09.123Z,32.08
2022-08-03T18:26:12.207Z,32.24
2022-08-03T18:29:15.778Z,32.29
2022-08-03T18:32:18.818Z,32.68
2022-08-03T18:35:24.707Z,37.26
2022-08-03T18:38:30.462Z,39.28
2022-08-03T18:41:35.357Z,39.98
2022-08-03T18:44:53.987Z,41.16
2022-08-03T18:48:27.110Z,40.03
2022-08-03T18:51:42.933Z,39.18
2022-08-03T18:55:14.094Z,41.16
2022-08-03T18:58:46.114Z,40.09
2022-08-03T19:02:00.419Z,40.88
2022-08-03T19:05:08.977Z,39.64
2022-08-03T19:08:28.611Z,40.17
2022-08-03T19:12:12.553Z,40.37
2022-08-03T19:15:13.031Z,38.23
2022-08-03T19:18:17.877Z,38.91
2022-08-03T19:21:21.857Z,38.80
2022-08-03T19:24:26.513Z,38.15
2022-08-03T19:27:31.224Z,37.64
2022-08-03T19:30:38.868Z,38.60
2022-08-03T19:33:55.945Z,38.22
2022-08-03T19:37:01.032Z,38.67
2022-08-03T19:40:10.890Z,38.71
2022-08-03T19:43:52.994Z,38.29
2022-08-03T19:47:09.705Z,37.99
2022-08-03T19:50:14.278Z,38.68
2022-08-03T19:53:19.800Z,38.77
2022-08-03T19:56:59.748Z,39.38
2022-08-03T20:00:09.288Z,39.70
2022-08-03T20:03:21.719Z,39.90
2022-08-03T20:06:26.416Z,39.68
2022-08-03T20:09:30.314Z,39.91
2022-08-03T20:12:38.745Z,39.91
2022-08-03T20:15:45.667Z,39.82
2022-08-03T20:18:50.705Z,40.02
2022-08-03T20:21:56.175Z,39.58
2022-08-03T20:25:06.899Z,39.33
2022-08-03T20:28:14.912Z,39.06
2022-08-03T20:31:23.844Z,38.23
2022-08-03T20:34:43.820Z,38.36
2022-08-03T20:37:46.224Z,38.01
2022-08-03T20:40:51.954Z,37.91
2022-08-03T20:44:00.917Z,37.68
2022-08-03T20:47:08.413Z,37.71
2022-08-03T20:50:13.071Z,37.76
2022-08-03T20:53:49.222Z,37.74
2022-08-03T20:57:00.593Z,38.09
2022-08-03T21:00:21.936Z,37.90
2022-08-03T21:07:04.049Z,38.54
2022-08-03T21:10:28.430Z,38.64
2022-08-03T21:13:07.968Z,38.17
2022-08-03T21:13:46.680Z,38.82
2022-08-03T21:17:14.037Z,39.18
2022-08-03T21:20:32.105Z,39.41
2022-08-03T21:23:48.806Z,39.01
2022-08-03T21:26:56.382Z,39.08
2022-08-03T21:30:05.570Z,39.16
2022-08-03T21:33:13.337Z,38.71
2022-08-03T21:36:16.173Z,38.55
2022-08-03T21:39:18.974Z,38.83
2022-08-03T21:42:23.949Z,38.94
2022-08-03T21:45:26.698Z,39.04
2022-08-03T21:48:36.119Z,39.01
2022-08-03T21:51:39.345Z,39.15
2022-08-03T21:54:44.896Z,39.48
2022-08-03T21:57:52.293Z,39.89
2022-08-03T22:00:55.453Z,39.84
2022-08-03T22:03:58.562Z,40.05
2022-08-03T22:07:01.206Z,40.16
2022-08-03T22:10:06.042Z,39.84
2022-08-03T22:13:08.328Z,39.82
2022-08-03T22:16:13.951Z,39.76
2022-08-03T22:19:16.283Z,39.72
2022-08-03T22:22:28.473Z,39.65
2022-08-03T22:25:35.158Z,39.51
2022-08-03T22:28:38.411Z,39.63
2022-08-03T22:31:58.439Z,39.57
2022-08-03T22:35:04.156Z,39.54
2022-08-03T22:38:08.579Z,39.70
2022-08-03T22:41:11.509Z,39.84
2022-08-03T22:44:14.008Z,39.72
2022-08-03T22:47:22.405Z,39.59
2022-08-03T22:50:32.344Z,39.58
2022-08-03T22:53:36.556Z,39.89
2022-08-03T22:56:38.971Z,40.23
2022-08-03T22:59:42.103Z,40.41
2022-08-03T23:02:48.293Z,40.85
2022-08-03T23:06:00.518Z,41.15
2022-08-03T23:09:11.220Z,41.31
2022-08-03T23:12:19.298Z,41.87
2022-08-03T23:15:26.153Z,41.96
2022-08-03T23:18:33.017Z,42.34
2022-08-03T23:21:53.466Z,42.42
2022-08-03T23:25:05.130Z,42.53
2022-08-03T23:28:09.393Z,42.77
2022-08-03T23:31:14.812Z,42.88
2022-08-03T23:34:36.974Z,42.88
2022-08-03T23:38:04.643Z,43.00
2022-08-03T23:41:06.328Z,42.92
2022-08-03T23:44:15.897Z,42.97
2022-08-03T23:47:18.619Z,42.76
2022-08-03T23:50:21.837Z,42.63
2022-08-03T23:53:40.697Z,42.56
2022-08-03T23:56:58.232Z,42.42
